Herndon, Kentucky
Current Conditions -  °F | °C
As of 9:58 AM on Thursday 18 Dec 2014 (Local Time) from KHOP Reporting Station
Overcast Overcast  
Wind Chill: 27°   Ceiling: 3300
Heat Index: 33°   Visibility: 10mi
Dew Point: 29°   Wind: 6mph
Humidity: 88%   Direction: 20°NNE
Pressure: 30.27"   Gusts: NA
Location:  36.73°N, 87.57°W
Report Text: KHOP 181558Z 02005KT 10SM OVC033 00/M01 A3027 RMK AO2A UPE1503DZB1503E1525 SLP258 P0000 T00031014
Loading
Personal Weather Stations






























Interactive Weather Map New forecast layout! Learn more

10-Day Weather Forecast

Advertisements
Track Severe Weather on mobile